Time;durP1;ratioP1;P1;durP2;ratioP2;P2;SDS_P1;SDS_P2;PMS_P1;PMS_P2;Temp;Humidity;BMP_temperature;BMP_pressure;BME280_temperature;BME280_humidity;BME280_pressure;Samples;Min_cycle;Max_cycle;Signal;HPM_P1;HPM_P2
2022/10/13 00:05:18;;;;;;;0.20;0.00;;;19.30;99.90;;;;;;21228343;28;20406;-70
2022/10/13 00:15:24;;;;;;;0.20;0.00;;;19.40;99.90;;;;;;21272682;28;20412;-72
2022/10/13 00:25:28;;;;;;;0.20;0.10;;;18.90;99.90;;;;;;21256764;28;20406;-72
2022/10/13 00:35:34;;;;;;;0.20;0.00;;;18.70;99.90;;;;;;21274124;28;20386;-69
2022/10/13 00:45:38;;;;;;;0.20;0.00;;;19.00;99.90;;;;;;21273976;28;20390;-70
2022/10/13 00:55:45;;;;;;;0.20;0.10;;;18.80;99.90;;;;;;21273218;28;20394;-71
2022/10/13 01:05:50;;;;;;;0.20;0.00;;;18.60;99.90;;;;;;21272742;28;20420;-71
2022/10/13 01:16:01;;;;;;;0.20;0.00;;;18.60;99.90;;;;;;21272814;28;20399;-71
2022/10/13 01:26:24;;;;;;;0.20;0.00;;;18.70;99.90;;;;;;21259748;28;20790;-71
2022/10/13 01:36:37;;;;;;;0.20;0.00;;;18.60;99.90;;;;;;21240375;28;20386;-72
2022/10/13 01:46:42;;;;;;;0.20;0.07;;;18.60;99.90;;;;;;21257058;28;20406;-70
2022/10/13 01:56:53;;;;;;;0.20;0.00;;;18.60;99.90;;;;;;21256532;28;20395;-72
2022/10/13 02:07:04;;;;;;;0.20;0.00;;;18.60;99.90;;;;;;21255261;28;21142;-71
2022/10/13 02:17:10;;;;;;;0.20;0.00;;;18.60;99.90;;;;;;21220029;28;20396;-69
2022/10/13 02:27:14;;;;;;;0.20;0.00;;;18.80;99.90;;;;;;21236232;28;20403;-71
2022/10/13 02:37:19;;;;;;;0.20;0.00;;;18.40;99.90;;;;;;21252976;28;20440;-69
2022/10/13 02:47:23;;;;;;;0.20;0.00;;;18.30;99.90;;;;;;21233999;28;20417;-70
2022/10/13 02:57:28;;;;;;;0.20;0.00;;;18.60;99.90;;;;;;21250880;28;20421;-71
2022/10/13 03:07:31;;;;;;;0.20;0.00;;;18.40;99.90;;;;;;21249846;28;20403;-70
2022/10/13 03:17:37;;;;;;;0.20;0.00;;;18.90;99.90;;;;;;21232230;28;20391;-71
2022/10/13 03:27:41;;;;;;;0.20;0.00;;;18.90;99.90;;;;;;21248628;28;20402;-72
2022/10/13 03:37:46;;;;;;;0.20;0.00;;;18.70;99.90;;;;;;21248038;28;20408;-71
2022/10/13 03:47:49;;;;;;;0.20;0.00;;;18.60;99.90;;;;;;21229076;28;20403;-71
2022/10/13 03:57:55;;;;;;;0.20;0.00;;;18.70;99.90;;;;;;21247112;28;20400;-71
2022/10/13 04:07:58;;;;;;;0.20;0.00;;;18.60;99.90;;;;;;21246752;28;20410;-70
2022/10/13 04:18:04;;;;;;;0.20;0.00;;;18.70;99.90;;;;;;21246197;28;20425;-72
2022/10/13 04:28:08;;;;;;;0.20;0.10;;;18.80;99.90;;;;;;21227651;28;20406;-71
2022/10/13 04:38:13;;;;;;;0.20;0.00;;;18.80;99.90;;;;;;21227195;28;20382;-69
2022/10/13 04:48:17;;;;;;;0.20;0.00;;;18.70;99.90;;;;;;21226006;28;20410;-70
2022/10/13 04:58:22;;;;;;;0.20;0.03;;;18.70;99.90;;;;;;21251805;28;20400;-71
2022/10/13 05:08:26;;;;;;;0.20;0.00;;;18.70;99.90;;;;;;21258522;28;20424;-70
2022/10/13 05:18:31;;;;;;;0.20;0.00;;;18.70;99.90;;;;;;21258584;28;20395;-71
2022/10/13 05:28:36;;;;;;;0.20;0.10;;;18.70;99.90;;;;;;21256861;28;20407;-71
2022/10/13 05:38:41;;;;;;;0.20;0.00;;;18.70;99.90;;;;;;21256058;28;20402;-70
2022/10/13 05:48:45;;;;;;;0.20;0.00;;;18.70;99.90;;;;;;21252708;28;20403;-72
2022/10/13 05:58:53;;;;;;;0.20;0.00;;;18.50;99.90;;;;;;21247503;28;20432;-76
2022/10/13 06:08:57;;;;;;;0.20;0.00;;;18.50;99.90;;;;;;21248371;28;20421;-71
2022/10/13 06:19:04;;;;;;;0.20;0.00;;;18.50;99.90;;;;;;21252546;28;20399;-69
2022/10/13 06:29:08;;;;;;;0.20;0.00;;;18.60;99.90;;;;;;21250646;28;20403;-68
2022/10/13 06:39:14;;;;;;;0.20;0.00;;;18.80;99.90;;;;;;21248901;28;20387;-71
2022/10/13 06:49:18;;;;;;;0.20;0.00;;;19.30;99.90;;;;;;21248616;28;20424;-72
2022/10/13 06:59:25;;;;;;;0.20;0.00;;;19.60;99.90;;;;;;21220367;28;20424;-70
2022/10/13 07:09:29;;;;;;;0.20;0.00;;;20.20;99.90;;;;;;21245510;28;20403;-71
2022/10/13 07:19:34;;;;;;;0.20;0.00;;;20.40;99.90;;;;;;21224034;28;20397;-69
2022/10/13 07:29:37;;;;;;;0.20;0.10;;;20.50;99.90;;;;;;21225185;28;20411;-71
2022/10/13 07:39:42;;;;;;;0.20;0.10;;;20.60;99.90;;;;;;21224961;27;20474;-69
2022/10/13 07:49:46;;;;;;;0.20;0.00;;;20.80;99.90;;;;;;21244803;27;20394;-72
2022/10/13 07:59:51;;;;;;;0.20;0.00;;;20.90;99.90;;;;;;21243488;28;20394;-70
2022/10/13 08:09:55;;;;;;;0.20;0.00;;;21.00;99.90;;;;;;21225878;28;20406;-70
2022/10/13 08:20:00;;;;;;;0.20;0.00;;;21.40;99.90;;;;;;21242774;28;20387;-69
2022/10/13 08:30:05;;;;;;;0.20;0.00;;;21.70;99.90;;;;;;21241685;28;20394;-70
2022/10/13 08:40:22;;;;;;;0.20;0.10;;;22.20;99.90;;;;;;21258426;28;20530;-70
2022/10/13 08:50:29;;;;;;;0.20;0.00;;;22.60;99.90;;;;;;21256578;28;20451;-70
2022/10/13 09:00:34;;;;;;;0.20;0.00;;;23.10;99.90;;;;;;21255034;28;20382;-70
2022/10/13 09:10:47;;;;;;;0.20;0.00;;;24.20;99.90;;;;;;21255806;28;20394;-70
2022/10/13 09:21:10;;;;;;;0.20;0.00;;;24.20;99.90;;;;;;21254800;28;20401;-69
2022/10/13 09:31:21;;;;;;;0.20;0.00;;;24.60;99.90;;;;;;21237047;28;20410;-70
2022/10/13 09:41:26;;;;;;;0.20;0.00;;;24.00;99.90;;;;;;21234016;28;20412;-69
2022/10/13 09:51:34;;;;;;;0.20;0.10;;;23.80;99.90;;;;;;21252065;28;20425;-70
2022/10/13 10:01:43;;;;;;;0.20;0.00;;;23.10;99.90;;;;;;21251501;28;20484;-70
2022/10/13 10:11:50;;;;;;;0.20;0.00;;;22.70;99.90;;;;;;21233409;28;20399;-70
2022/10/13 10:22:03;;;;;;;0.20;0.00;;;24.30;99.90;;;;;;21250982;28;21181;-70
2022/10/13 10:32:20;;;;;;;0.20;0.00;;;24.60;99.90;;;;;;21249997;28;20434;-71
2022/10/13 10:42:55;;;;;;;0.20;0.00;;;25.10;99.90;;;;;;21171813;28;20473;-70
2022/10/13 10:53:02;;;;;;;0.20;0.00;;;26.50;99.90;;;;;;21150701;28;20403;-69
2022/10/13 11:03:19;;;;;;;0.20;0.00;;;26.60;99.90;;;;;;21162301;28;20401;-69
2022/10/13 11:13:24;;;;;;;0.20;0.00;;;26.90;99.90;;;;;;21143674;28;20450;-70
2022/10/13 11:23:34;;;;;;;0.20;0.00;;;27.10;99.90;;;;;;21160708;28;20403;-70
2022/10/13 11:33:54;;;;;;;0.20;0.00;;;26.90;99.90;;;;;;21141419;28;20534;-71
2022/10/13 11:44:06;;;;;;;0.20;0.00;;;26.90;99.90;;;;;;21158448;28;21146;-70
2022/10/13 11:54:20;;;;;;;0.20;0.00;;;26.60;99.90;;;;;;21159731;28;20414;-69
2022/10/13 12:04:27;;;;;;;0.20;0.00;;;27.20;99.90;;;;;;21157998;28;20404;-69
2022/10/13 12:14:37;;;;;;;0.20;0.00;;;27.20;99.90;;;;;;21156810;28;20431;-69
2022/10/13 12:24:59;;;;;;;0.20;0.00;;;27.10;99.90;;;;;;21157616;28;20380;-70
2022/10/13 12:35:19;;;;;;;0.20;0.00;;;27.30;99.90;;;;;;21153722;28;20495;-69
2022/10/13 12:45:29;;;;;;;0.20;0.03;;;27.20;99.90;;;;;;21149895;28;20422;-70
2022/10/13 12:55:34;;;;;;;0.20;0.00;;;28.30;99.90;;;;;;21137292;28;20412;-70
2022/10/13 13:05:42;;;;;;;0.20;0.00;;;28.10;99.90;;;;;;21121247;28;20389;-70
2022/10/13 13:15:54;;;;;;;0.20;0.00;;;28.30;99.90;;;;;;21140193;28;20392;-70
2022/10/13 13:26:06;;;;;;;0.20;0.00;;;28.00;99.90;;;;;;21170182;28;20396;-70
2022/10/13 13:36:16;;;;;;;0.20;0.00;;;28.90;99.90;;;;;;21151601;28;20399;-70
2022/10/13 13:46:23;;;;;;;0.20;0.00;;;27.30;99.90;;;;;;21168569;28;20388;-68
2022/10/13 13:56:27;;;;;;;0.20;0.00;;;28.90;99.90;;;;;;21167431;28;20397;-69
2022/10/13 14:06:32;;;;;;;0.20;0.00;;;29.20;99.90;;;;;;21163931;28;20400;-70
2022/10/13 14:16:36;;;;;;;0.20;0.00;;;29.70;99.90;;;;;;21162048;28;20392;-69
2022/10/13 14:26:41;;;;;;;0.20;0.00;;;29.60;99.90;;;;;;21163129;28;20518;-69
2022/10/13 14:36:45;;;;;;;0.20;0.00;;;29.30;99.90;;;;;;21161468;28;20411;-68
2022/10/13 14:46:50;;;;;;;0.20;0.00;;;28.40;99.90;;;;;;21158399;28;20411;-71
2022/10/13 14:56:54;;;;;;;0.20;0.00;;;28.40;99.90;;;;;;21158381;28;20392;-69
2022/10/13 15:06:59;;;;;;;0.20;0.00;;;28.20;99.90;;;;;;21138471;28;20405;-70
2022/10/13 15:17:03;;;;;;;0.20;0.00;;;28.50;99.90;;;;;;21236819;28;20419;-69
2022/10/13 15:27:08;;;;;;;0.20;0.00;;;28.40;99.90;;;;;;21242314;28;20433;-72
2022/10/13 15:37:12;;;;;;;0.20;0.00;;;27.80;99.90;;;;;;21175712;28;20450;-70
2022/10/13 15:47:17;;;;;;;0.20;0.00;;;27.10;99.90;;;;;;21138647;28;20403;-69
2022/10/13 15:57:21;;;;;;;0.20;0.00;;;25.90;99.90;;;;;;21137638;28;20392;-71
2022/10/13 16:07:26;;;;;;;0.20;0.00;;;25.70;99.90;;;;;;21138668;28;20396;-70
2022/10/13 16:17:29;;;;;;;0.20;0.00;;;25.00;99.90;;;;;;21155690;28;20392;-69
2022/10/13 16:27:34;;;;;;;0.20;0.00;;;24.90;99.90;;;;;;21135414;28;20396;-69
2022/10/13 16:37:44;;;;;;;0.20;0.00;;;25.00;99.90;;;;;;21179614;28;20398;-70
2022/10/13 16:47:52;;;;;;;0.20;0.00;;;24.80;99.90;;;;;;21238021;28;20397;-70
2022/10/13 16:57:55;;;;;;;0.20;0.00;;;24.20;99.90;;;;;;21254153;28;20434;-69
2022/10/13 17:08:00;;;;;;;0.20;0.00;;;24.00;99.90;;;;;;21252477;28;20394;-71
2022/10/13 17:18:04;;;;;;;0.20;0.00;;;23.80;99.90;;;;;;21253068;28;20409;-69
2022/10/13 17:28:09;;;;;;;0.20;0.00;;;23.60;99.90;;;;;;21235106;28;20408;-70
2022/10/13 17:38:14;;;;;;;0.20;0.00;;;23.60;99.90;;;;;;21250449;28;20394;-71
2022/10/13 17:48:19;;;;;;;0.20;0.00;;;23.40;99.90;;;;;;21217909;28;20447;-71
2022/10/13 17:58:25;;;;;;;0.20;0.00;;;23.20;99.90;;;;;;21252305;28;20394;-71
2022/10/13 18:08:32;;;;;;;0.20;0.00;;;23.20;99.90;;;;;;21251437;28;20491;-71
2022/10/13 18:18:36;;;;;;;0.20;0.00;;;23.10;99.90;;;;;;21215188;28;20383;-70
2022/10/13 18:28:43;;;;;;;0.20;0.00;;;22.90;99.90;;;;;;21248786;28;20412;-71
2022/10/13 18:38:47;;;;;;;0.20;0.00;;;22.70;99.90;;;;;;21247052;28;20395;-71
2022/10/13 18:48:53;;;;;;;0.20;0.00;;;22.70;99.90;;;;;;21250360;28;20406;-72
2022/10/13 18:58:58;;;;;;;0.20;0.00;;;22.40;99.90;;;;;;21189968;28;20407;-72
2022/10/13 19:09:06;;;;;;;0.20;0.00;;;22.30;99.90;;;;;;21162862;28;20407;-69
2022/10/13 19:19:10;;;;;;;0.20;0.00;;;22.40;99.90;;;;;;21159239;28;20415;-70
2022/10/13 19:29:15;;;;;;;0.20;0.00;;;22.30;99.90;;;;;;21159851;28;20399;-70
2022/10/13 19:39:22;;;;;;;0.20;0.00;;;22.10;99.90;;;;;;21162075;28;20396;-72
2022/10/13 19:49:27;;;;;;;0.20;0.00;;;21.20;99.90;;;;;;21140567;28;20411;-69
2022/10/13 19:59:31;;;;;;;0.20;0.00;;;20.80;99.90;;;;;;21158691;28;20394;-70
2022/10/13 20:09:36;;;;;;;0.20;0.00;;;20.50;99.90;;;;;;21140206;28;20410;-70
2022/10/13 20:19:40;;;;;;;0.20;0.00;;;20.30;99.90;;;;;;21157110;28;20408;-71
2022/10/13 20:29:45;;;;;;;0.20;0.00;;;20.50;99.90;;;;;;21173064;28;20387;-70
2022/10/13 20:39:49;;;;;;;0.20;0.00;;;20.40;99.90;;;;;;21256718;28;20390;-69
2022/10/13 20:49:54;;;;;;;0.20;0.00;;;20.70;99.90;;;;;;21257708;28;20424;-69
2022/10/13 20:59:58;;;;;;;0.20;0.00;;;20.60;99.90;;;;;;21259535;28;20382;-70
2022/10/13 21:10:03;;;;;;;0.20;0.00;;;20.70;99.90;;;;;;21259430;28;20402;-70
2022/10/13 21:20:08;;;;;;;0.20;0.00;;;21.10;99.90;;;;;;21241393;28;20378;-70
2022/10/13 21:30:14;;;;;;;0.20;0.00;;;20.70;99.90;;;;;;21239956;28;20407;-71
2022/10/13 21:40:18;;;;;;;0.20;0.00;;;20.50;99.90;;;;;;21234668;28;20472;-71
2022/10/13 21:50:24;;;;;;;0.20;0.00;;;20.10;99.90;;;;;;21236322;28;20398;-70
2022/10/13 22:00:28;;;;;;;0.20;0.00;;;19.70;99.90;;;;;;21233102;28;20386;-70
2022/10/13 22:10:34;;;;;;;0.20;0.00;;;19.80;99.90;;;;;;21253039;28;20422;-70
2022/10/13 22:20:38;;;;;;;0.20;0.00;;;19.20;99.90;;;;;;21252681;28;20379;-70
2022/10/13 22:30:43;;;;;;;0.20;0.00;;;19.20;99.90;;;;;;21251085;28;20420;-70
